createdAt,value
2016-06-22T00:00:28.469Z,18.83
2016-06-22T00:01:28.430Z,18.75
2016-06-22T00:02:28.436Z,18.86
2016-06-22T00:03:28.459Z,18.78
2016-06-22T00:04:28.441Z,18.84
2016-06-22T00:05:28.445Z,18.83
2016-06-22T00:06:28.454Z,18.84
2016-06-22T00:07:28.441Z,18.88
2016-06-22T00:08:28.475Z,18.92
2016-06-22T00:09:28.438Z,18.92
2016-06-22T00:10:28.442Z,18.84
2016-06-22T00:11:28.453Z,18.96
2016-06-22T00:12:28.471Z,18.9
2016-06-22T00:13:29.014Z,18.83
2016-06-22T00:14:28.467Z,18.89
2016-06-22T00:15:28.448Z,18.93
2016-06-22T00:16:28.452Z,18.83
2016-06-22T00:17:28.455Z,18.84
2016-06-22T00:18:28.481Z,18.86
2016-06-22T00:19:28.455Z,18.78
2016-06-22T00:20:28.474Z,18.7
2016-06-22T00:21:28.476Z,18.73
2016-06-22T00:22:27.919Z,18.78
2016-06-22T00:23:28.479Z,18.75
2016-06-22T00:24:28.469Z,18.73
2016-06-22T00:25:27.924Z,18.71
2016-06-22T00:26:28.462Z,18.77
2016-06-22T00:27:28.484Z,18.75
2016-06-22T00:28:28.447Z,18.7
2016-06-22T00:29:28.466Z,18.74
2016-06-22T00:30:28.483Z,18.81
2016-06-22T00:31:28.451Z,18.73
2016-06-22T00:32:28.454Z,18.65
2016-06-22T00:33:28.447Z,18.73
2016-06-22T00:34:28.463Z,18.66
2016-06-22T00:35:28.460Z,18.74
2016-06-22T00:36:28.475Z,18.75
2016-06-22T00:37:28.466Z,18.7
2016-06-22T00:38:28.462Z,18.74
2016-06-22T00:39:28.512Z,18.71
2016-06-22T00:40:28.664Z,18.8
2016-06-22T00:41:28.478Z,18.73
2016-06-22T00:42:28.472Z,18.74
2016-06-22T00:43:28.522Z,18.73
2016-06-22T00:44:28.458Z,18.74
2016-06-22T00:45:28.474Z,18.68
2016-06-22T00:46:28.479Z,18.63
2016-06-22T00:47:28.460Z,18.75
2016-06-22T00:48:28.470Z,18.68
2016-06-22T00:49:28.455Z,18.81
2016-06-22T00:50:28.522Z,18.7
2016-06-22T00:51:28.477Z,18.65
2016-06-22T00:52:28.468Z,18.6
2016-06-22T00:53:28.486Z,18.65
2016-06-22T00:54:28.474Z,18.63
2016-06-22T00:55:28.484Z,18.6
2016-06-22T00:56:28.459Z,18.55
2016-06-22T00:57:28.487Z,18.6
2016-06-22T00:58:28.470Z,18.7
2016-06-22T00:59:28.471Z,18.55
2016-06-22T01:00:28.515Z,18.59
2016-06-22T01:01:28.455Z,18.59
2016-06-22T01:02:28.469Z,18.55
2016-06-22T01:03:28.492Z,18.6
2016-06-22T01:04:28.480Z,18.66
2016-06-22T01:05:28.492Z,18.59
2016-06-22T01:06:28.504Z,18.55
2016-06-22T01:07:28.475Z,18.59
2016-06-22T01:08:28.485Z,18.62
2016-06-22T01:09:28.468Z,18.59
2016-06-22T01:10:28.477Z,18.55
2016-06-22T01:11:28.465Z,18.56
2016-06-22T01:12:28.475Z,18.53
2016-06-22T01:13:28.445Z,18.53
2016-06-22T01:14:28.480Z,18.47
2016-06-22T01:15:28.469Z,18.49
2016-06-22T01:16:28.453Z,18.52
2016-06-22T01:17:28.489Z,18.49
2016-06-22T01:18:28.481Z,18.5
2016-06-22T01:19:28.480Z,18.45
2016-06-22T01:20:28.490Z,18.56
2016-06-22T01:21:28.480Z,18.43
2016-06-22T01:22:29.489Z,18.55
2016-06-22T01:23:28.468Z,18.53
2016-06-22T01:24:28.487Z,18.49
2016-06-22T01:25:28.469Z,18.41
2016-06-22T01:26:28.481Z,18.56
2016-06-22T01:27:28.493Z,18.45
2016-06-22T01:28:28.470Z,18.49
2016-06-22T01:29:28.490Z,18.45
2016-06-22T01:30:28.477Z,18.5
2016-06-22T01:31:28.486Z,18.4
2016-06-22T01:32:28.489Z,18.4
2016-06-22T01:33:28.489Z,18.4
2016-06-22T01:34:28.486Z,18.37
2016-06-22T01:35:28.507Z,18.41
2016-06-22T01:36:28.499Z,18.4
2016-06-22T01:37:28.467Z,18.37
2016-06-22T01:38:28.496Z,18.38
2016-06-22T01:39:28.477Z,18.31
2016-06-22T01:40:28.486Z,18.38
2016-06-22T01:41:28.496Z,18.4
2016-06-22T01:42:28.495Z,18.37
2016-06-22T01:43:28.508Z,18.34
2016-06-22T01:44:28.498Z,18.4
2016-06-22T01:45:28.527Z,18.31
2016-06-22T01:46:28.513Z,18.29
2016-06-22T01:47:28.503Z,18.28
2016-06-22T01:48:28.526Z,18.25
2016-06-22T01:49:29.084Z,18.26
2016-06-22T01:50:28.501Z,18.2
2016-06-22T01:51:28.513Z,18.07
2016-06-22T01:52:28.495Z,18.16
2016-06-22T01:53:28.511Z,18.2
2016-06-22T01:54:28.535Z,18.18
2016-06-22T01:55:28.483Z,18.25
2016-06-22T01:56:28.497Z,18.19
2016-06-22T01:57:28.500Z,18.25
2016-06-22T01:58:29.379Z,18.25
2016-06-22T01:59:28.503Z,18.33
2016-06-22T02:00:28.506Z,18.33
2016-06-22T02:01:28.477Z,18.31
2016-06-22T02:02:28.514Z,18.34
2016-06-22T02:03:28.645Z,18.34
2016-06-22T02:04:28.496Z,18.31
2016-06-22T02:05:28.520Z,18.38
2016-06-22T02:06:28.483Z,18.38
2016-06-22T02:07:28.478Z,18.45
2016-06-22T02:08:28.511Z,18.5
2016-06-22T02:09:28.507Z,18.52
2016-06-22T02:10:28.614Z,18.41
2016-06-22T02:11:28.497Z,18.4
2016-06-22T02:12:28.514Z,18.41
2016-06-22T02:13:28.508Z,18.43
2016-06-22T02:14:28.507Z,18.4
2016-06-22T02:15:28.526Z,18.37
2016-06-22T02:16:28.503Z,18.45
2016-06-22T02:17:28.526Z,18.37
2016-06-22T02:18:29.346Z,18.38
2016-06-22T02:19:28.507Z,18.5
2016-06-22T02:20:28.502Z,18.38
2016-06-22T02:21:28.504Z,18.4
2016-06-22T02:22:28.507Z,18.45
2016-06-22T02:23:28.503Z,18.4
2016-06-22T02:24:29.334Z,18.44
2016-06-22T02:25:28.505Z,18.44
2016-06-22T02:26:28.514Z,18.33
2016-06-22T02:27:28.510Z,18.38
2016-06-22T02:28:28.534Z,18.28
2016-06-22T02:29:28.518Z,18.37
2016-06-22T02:30:28.528Z,18.25
2016-06-22T02:31:28.503Z,18.23
2016-06-22T02:32:28.526Z,18.18
2016-06-22T02:33:28.511Z,18.26
2016-06-22T02:34:28.523Z,18.25
2016-06-22T02:35:28.512Z,18.22
2016-06-22T02:36:28.533Z,18.26
2016-06-22T02:37:28.535Z,18.26
2016-06-22T02:38:28.538Z,18.25
2016-06-22T02:39:28.498Z,18.19
2016-06-22T02:40:28.516Z,18.19
2016-06-22T02:41:28.500Z,18.19
2016-06-22T02:42:28.551Z,18.16
2016-06-22T02:43:28.518Z,18.08
2016-06-22T02:44:28.513Z,18.11
2016-06-22T02:45:28.525Z,18.1
2016-06-22T02:46:28.518Z,18
2016-06-22T02:47:29.479Z,18.03
2016-06-22T02:48:28.527Z,18.01
2016-06-22T02:49:28.520Z,18.05
2016-06-22T02:50:28.516Z,18.1
2016-06-22T02:51:28.533Z,18.15
2016-06-22T02:52:28.505Z,18.08
2016-06-22T02:53:28.534Z,18.03
2016-06-22T02:54:28.512Z,18.13
2016-06-22T02:55:28.533Z,18.1
2016-06-22T02:56:28.530Z,18.15
2016-06-22T02:57:28.564Z,18.05
2016-06-22T02:58:28.522Z,18.13
2016-06-22T02:59:28.556Z,18.1
2016-06-22T03:00:28.533Z,18.16
2016-06-22T03:01:28.508Z,18.19
2016-06-22T03:02:28.552Z,18.15
2016-06-22T03:03:29.362Z,18.18
2016-06-22T03:04:28.515Z,18.18
2016-06-22T03:05:29.374Z,18.11
2016-06-22T03:06:28.520Z,18.03
2016-06-22T03:07:29.089Z,18.11
2016-06-22T03:08:28.532Z,18.15
2016-06-22T03:09:29.789Z,18.13
2016-06-22T03:10:28.527Z,18.16
2016-06-22T03:11:29.225Z,18.19
2016-06-22T03:12:28.530Z,18.1
2016-06-22T03:13:29.192Z,18.18
2016-06-22T03:14:28.539Z,18.15
2016-06-22T03:15:29.119Z,18.18
2016-06-22T03:16:28.534Z,18.13
2016-06-22T03:17:29.363Z,18.08
2016-06-22T03:18:28.561Z,18.08
2016-06-22T03:19:28.539Z,18.22
2016-06-22T03:20:28.538Z,18.23
2016-06-22T03:21:28.539Z,18.22
2016-06-22T03:22:28.576Z,18.22
2016-06-22T03:23:28.535Z,18.19
2016-06-22T03:24:28.546Z,18.18
2016-06-22T03:25:28.573Z,18.16
2016-06-22T03:26:28.568Z,18.19
2016-06-22T03:27:28.567Z,18.13
2016-06-22T03:28:28.537Z,18.13
2016-06-22T03:29:28.563Z,18.22
2016-06-22T03:30:28.577Z,18.23
2016-06-22T03:31:28.557Z,18.18
2016-06-22T03:32:28.583Z,18.11
2016-06-22T03:33:28.603Z,18.29
2016-06-22T03:34:28.594Z,18.13
2016-06-22T03:35:28.645Z,18.1
2016-06-22T03:36:28.599Z,18.18
2016-06-22T03:37:29.154Z,18.22
2016-06-22T03:38:28.612Z,18.23
2016-06-22T03:39:28.599Z,18.2
2016-06-22T03:40:28.650Z,18.2
2016-06-22T03:41:28.767Z,18.25
2016-06-22T03:42:28.612Z,18.26
2016-06-22T03:43:28.584Z,18.25
2016-06-22T03:44:28.606Z,18.2
2016-06-22T03:45:28.604Z,18.18
2016-06-22T03:46:28.611Z,18.23
2016-06-22T03:47:28.634Z,18.25
2016-06-22T03:48:28.613Z,18.28
2016-06-22T03:49:29.175Z,18.26
2016-06-22T03:50:28.562Z,18.35
2016-06-22T03:51:28.610Z,18.37
2016-06-22T03:52:28.546Z,18.35
2016-06-22T03:53:28.589Z,18.38
2016-06-22T03:54:28.662Z,18.5
2016-06-22T03:55:28.578Z,18.4
2016-06-22T03:56:28.544Z,18.5
2016-06-22T03:57:28.601Z,18.6
2016-06-22T03:58:28.647Z,18.68
2016-06-22T03:59:29.083Z,18.6
2016-06-22T04:00:28.608Z,18.58
2016-06-22T04:01:28.615Z,18.49
2016-06-22T04:02:28.601Z,18.55
2016-06-22T04:03:28.689Z,18.73
2016-06-22T04:04:28.673Z,18.77
2016-06-22T04:05:28.607Z,18.7
2016-06-22T04:06:28.570Z,18.78
2016-06-22T04:07:28.614Z,18.75
2016-06-22T04:08:28.606Z,18.68
2016-06-22T04:09:28.772Z,18.73
2016-06-22T04:10:28.581Z,18.68
2016-06-22T04:11:28.629Z,18.65
2016-06-22T04:12:28.589Z,18.65
2016-06-22T04:25:29.453Z,18.63
2016-06-22T04:25:44.584Z,18.58
2016-06-22T04:26:44.564Z,18.6
2016-06-22T04:27:45.239Z,18.56
2016-06-22T04:28:44.595Z,18.55
2016-06-22T04:29:44.554Z,18.68
2016-06-22T04:30:44.567Z,18.68
2016-06-22T04:31:44.545Z,18.6
2016-06-22T04:32:44.547Z,18.68
2016-06-22T04:33:44.538Z,18.66
2016-06-22T04:34:44.563Z,18.68
2016-06-22T04:35:44.651Z,18.78
2016-06-22T04:36:45.537Z,18.83
2016-06-22T04:37:44.557Z,18.71
2016-06-22T04:38:44.561Z,18.83
2016-06-22T04:39:44.512Z,18.86
2016-06-22T04:40:44.653Z,18.92
2016-06-22T04:41:44.526Z,18.96
2016-06-22T04:42:44.572Z,19.14
2016-06-22T04:43:44.613Z,19.39
2016-06-22T04:44:44.558Z,19.71
2016-06-22T04:45:44.579Z,20.32
2016-06-22T04:46:44.552Z,20.77
2016-06-22T04:47:44.663Z,21.32
2016-06-22T04:48:45.254Z,21.6
2016-06-22T04:49:44.631Z,21.82
2016-06-22T04:50:44.535Z,22.1
2016-06-22T04:51:44.797Z,21.95
2016-06-22T04:52:44.750Z,21.96
2016-06-22T04:53:45.370Z,22.11
2016-06-22T04:54:44.917Z,22.17
2016-06-22T04:55:44.670Z,22.17
2016-06-22T05:08:45.295Z,19.95
2016-06-22T05:09:00.423Z,19.94
2016-06-22T05:10:00.414Z,19.88
2016-06-22T05:11:00.851Z,19.86
2016-06-22T05:12:01.427Z,19.84
2016-06-22T05:13:01.575Z,19.69
2016-06-22T05:14:00.419Z,19.62
2016-06-22T05:15:00.808Z,19.66
2016-06-22T05:16:00.397Z,19.79
2016-06-22T05:17:00.409Z,19.81
2016-06-22T05:18:00.395Z,19.81
2016-06-22T05:19:01.208Z,19.82
2016-06-22T05:20:01.595Z,19.79
2016-06-22T05:21:00.586Z,19.67
2016-06-22T05:22:00.379Z,19.67
2016-06-22T05:23:00.448Z,19.51
2016-06-22T05:24:00.489Z,19.4
2016-06-22T05:25:00.441Z,19.45
2016-06-22T05:26:00.404Z,19.51
2016-06-22T05:27:01.671Z,19.52
2016-06-22T05:28:01.121Z,19.51
2016-06-22T05:29:00.601Z,19.52
2016-06-22T05:30:02.923Z,19.63
2016-06-22T05:31:00.658Z,19.74
2016-06-22T05:32:00.646Z,19.76
2016-06-22T05:33:00.744Z,19.89
2016-06-22T05:34:00.551Z,19.95
2016-06-22T05:35:00.909Z,20.16
2016-06-22T05:36:00.668Z,20.37
2016-06-22T05:37:00.713Z,20.39
2016-06-22T05:38:00.591Z,20.4
2016-06-22T05:39:00.625Z,20.96
2016-06-22T05:40:00.685Z,21.52
2016-06-22T05:41:00.545Z,22.45
2016-06-22T05:42:00.487Z,23.15
2016-06-22T05:43:00.862Z,23.18
2016-06-22T05:44:00.663Z,23.08
2016-06-22T05:54:01.324Z,21.05
2016-06-22T05:54:16.483Z,21.11
2016-06-22T05:55:16.515Z,20.82
2016-06-22T05:56:17.521Z,20.51
2016-06-22T05:57:16.430Z,20.28
2016-06-22T05:58:16.431Z,20.04
2016-06-22T05:59:16.454Z,19.82
2016-06-22T06:00:16.882Z,19.76
2016-06-22T06:01:16.861Z,19.71
2016-06-22T06:02:16.466Z,19.66
2016-06-22T06:03:16.521Z,19.59
2016-06-22T06:04:16.445Z,19.58
2016-06-22T06:05:16.461Z,19.63
2016-06-22T06:06:16.476Z,19.62
2016-06-22T06:07:16.521Z,19.63
2016-06-22T06:08:16.487Z,19.64
2016-06-22T06:09:16.443Z,19.62
2016-06-22T06:10:16.487Z,19.63
2016-06-22T06:11:16.497Z,19.69
2016-06-22T06:12:16.488Z,19.7
2016-06-22T06:13:16.463Z,19.81
2016-06-22T06:14:16.529Z,19.79
2016-06-22T06:15:17.098Z,19.76
2016-06-22T06:16:16.489Z,19.82
2016-06-22T06:17:17.463Z,19.86
2016-06-22T06:18:16.444Z,19.86
2016-06-22T06:19:16.461Z,19.85
2016-06-22T06:20:17.008Z,19.79
2016-06-22T06:21:16.471Z,19.74
2016-06-22T06:22:16.465Z,19.84
2016-06-22T06:23:16.495Z,19.71
2016-06-22T06:24:16.470Z,19.89
2016-06-22T06:25:16.454Z,19.82
2016-06-22T06:26:16.466Z,19.86
2016-06-22T06:27:16.496Z,19.81
2016-06-22T06:28:16.432Z,19.85
2016-06-22T06:29:17.094Z,19.82
2016-06-22T06:30:16.470Z,19.86
2016-06-22T06:31:16.438Z,19.77
2016-06-22T06:32:16.467Z,19.85
2016-06-22T06:33:16.463Z,19.81
2016-06-22T06:34:16.441Z,19.73
2016-06-22T06:35:16.551Z,19.73
2016-06-22T06:36:16.451Z,19.66
2016-06-22T06:37:16.441Z,19.81
2016-06-22T06:38:16.461Z,19.77
2016-06-22T06:39:16.469Z,19.85
2016-06-22T06:40:16.508Z,19.91
2016-06-22T06:41:16.453Z,19.89
2016-06-22T06:42:16.481Z,19.85
2016-06-22T06:43:16.503Z,20.03
2016-06-22T06:44:16.568Z,20.09
2016-06-22T06:45:16.701Z,20.24
2016-06-22T06:46:16.472Z,20.16
2016-06-22T06:47:16.462Z,20.32
2016-06-22T06:48:16.462Z,20.62
2016-06-22T06:49:16.468Z,20.84
2016-06-22T06:50:16.482Z,21.03
2016-06-22T06:51:16.709Z,21.21
2016-06-22T06:52:16.503Z,21.35
2016-06-22T06:53:16.623Z,21.54
2016-06-22T06:54:16.465Z,21.5
2016-06-22T06:55:16.533Z,21.72
2016-06-22T06:56:16.716Z,21.82
2016-06-22T06:57:16.511Z,21.92
2016-06-22T06:58:16.482Z,21.79
2016-06-22T06:59:16.452Z,21.79
2016-06-22T07:00:16.470Z,21.79
2016-06-22T07:01:16.837Z,21.72
2016-06-22T07:02:17.211Z,21.54
2016-06-22T07:03:16.478Z,21.05
2016-06-22T07:04:16.538Z,20.81
2016-06-22T07:05:16.493Z,20.7
2016-06-22T07:06:16.488Z,20.55
2016-06-22T07:07:16.501Z,20.5
2016-06-22T07:08:16.474Z,20.36
2016-06-22T07:09:16.466Z,20.21
2016-06-22T07:10:16.534Z,20.14
2016-06-22T07:11:16.478Z,20
2016-06-22T07:12:16.477Z,20
2016-06-22T07:13:17.034Z,19.95
2016-06-22T07:14:16.537Z,20.04
2016-06-22T07:15:16.681Z,20.11
2016-06-22T07:16:16.461Z,20.28
2016-06-22T07:17:16.543Z,20.47
2016-06-22T07:18:16.511Z,20.43
2016-06-22T07:19:16.711Z,20.69
2016-06-22T07:20:16.467Z,20.85
2016-06-22T07:21:16.698Z,21.02
2016-06-22T07:22:16.961Z,21.09
2016-06-22T07:23:16.556Z,21.25
2016-06-22T07:24:16.506Z,21.4
2016-06-22T07:25:17.501Z,21.42
2016-06-22T07:26:16.861Z,21.58
2016-06-22T07:27:16.583Z,21.6
2016-06-22T07:28:17.492Z,21.69
2016-06-22T07:29:16.521Z,21.82
2016-06-22T07:30:17.428Z,21.57
2016-06-22T07:31:16.566Z,21.76
2016-06-22T07:32:16.841Z,21.98
2016-06-22T07:33:16.591Z,22.02
2016-06-22T07:34:16.574Z,22.15
2016-06-22T07:35:17.806Z,22.22
2016-06-22T07:36:17.218Z,22.5
2016-06-22T07:37:16.688Z,22.68
2016-06-22T07:38:16.540Z,22.45
2016-06-22T07:39:16.518Z,22.47
2016-06-22T07:40:16.782Z,22.54
2016-06-22T07:41:17.612Z,22.84
2016-06-22T07:42:16.839Z,23.1
2016-06-22T07:43:17.181Z,23.32
2016-06-22T07:44:18.083Z,23.15
2016-06-22T07:45:16.635Z,23.48
2016-06-22T07:46:17.642Z,23.88
2016-06-22T07:47:16.649Z,24.28
2016-06-22T07:48:16.558Z,24.5
2016-06-22T07:49:17.728Z,24.53
2016-06-22T07:50:16.544Z,24.4
2016-06-22T07:51:16.624Z,24.24
2016-06-22T07:52:16.497Z,23.76
2016-06-22T07:53:20.459Z,23.78
2016-06-22T07:54:16.477Z,23.73
2016-06-22T07:55:16.513Z,23.55
2016-06-22T07:56:16.630Z,23.62
2016-06-22T07:57:16.623Z,24.02
2016-06-22T07:58:16.610Z,24.17
2016-06-22T07:59:16.587Z,24.28
2016-06-22T08:00:16.673Z,24.39
2016-06-22T08:01:16.723Z,24.69
2016-06-22T08:02:16.842Z,24.65
2016-06-22T08:03:16.613Z,24.61
2016-06-22T08:04:16.543Z,24.43
2016-06-22T08:05:16.974Z,23.71
2016-06-22T08:06:16.598Z,23.54
2016-06-22T08:07:16.936Z,23.13
2016-06-22T08:08:17.109Z,22.94
2016-06-22T08:09:16.557Z,22.83
2016-06-22T08:10:16.604Z,23.32
2016-06-22T08:11:16.778Z,23.62
2016-06-22T08:12:16.547Z,23.96
2016-06-22T08:13:16.685Z,24.05
2016-06-22T08:14:16.599Z,24.26
2016-06-22T08:15:17.490Z,24.08
2016-06-22T08:16:16.833Z,24.26
2016-06-22T08:17:16.543Z,24.6
2016-06-22T08:18:16.698Z,24.86
2016-06-22T08:19:16.564Z,24.77
2016-06-22T08:20:16.586Z,25.41
2016-06-22T08:21:17.699Z,26.03
2016-06-22T08:22:16.713Z,26.75
2016-06-22T08:23:18.190Z,27.2
2016-06-22T08:24:18.655Z,27.35
2016-06-22T08:25:17.040Z,27.2
2016-06-22T08:26:17.322Z,27.02
2016-06-22T08:27:16.854Z,26.18
2016-06-22T08:28:16.653Z,26.34
2016-06-22T08:29:16.894Z,26.43
2016-06-22T08:30:16.626Z,26.51
2016-06-22T08:31:17.228Z,26.84
2016-06-22T08:32:16.625Z,26.8
2016-06-22T08:33:16.634Z,27.51
2016-06-22T08:34:18.532Z,28.1
2016-06-22T08:35:16.531Z,28.81
2016-06-22T08:36:16.635Z,28.45
2016-06-22T08:37:16.959Z,27.48
2016-06-22T08:38:27.395Z,27.33
2016-06-22T08:39:18.513Z,27.68
2016-06-22T08:40:16.638Z,27.89
2016-06-22T08:41:16.580Z,28.74
2016-06-22T08:42:16.614Z,27.22
2016-06-22T08:43:18.722Z,27.18
2016-06-22T08:44:16.515Z,28
2016-06-22T08:45:16.557Z,28.75
2016-06-22T08:46:16.651Z,28.69
2016-06-22T08:47:16.695Z,29.24
2016-06-22T08:48:16.581Z,29.01
2016-06-22T08:49:16.519Z,28.62
2016-06-22T08:50:16.701Z,28.97
2016-06-22T08:51:16.577Z,28.94
2016-06-22T08:52:16.549Z,27.98
2016-06-22T08:53:16.521Z,28.02
2016-06-22T08:54:16.543Z,28.44
2016-06-22T08:55:16.583Z,28.79
2016-06-22T08:56:27.395Z,28.32
2016-06-22T08:57:20.822Z,28.05
2016-06-22T08:58:16.657Z,27.78
2016-06-22T08:59:16.567Z,27.74
2016-06-22T09:00:16.563Z,27.89
2016-06-22T09:01:16.541Z,28.23
2016-06-22T09:02:16.659Z,27.87
2016-06-22T09:03:16.550Z,27.7
2016-06-22T09:04:16.556Z,27.82
2016-06-22T09:05:16.717Z,28.08
2016-06-22T09:06:16.571Z,28.41
2016-06-22T09:07:22.137Z,28.32
2016-06-22T09:08:16.661Z,28.35
2016-06-22T09:09:16.558Z,28.25
2016-06-22T09:10:19.202Z,28.51
2016-06-22T09:11:16.696Z,28.48
2016-06-22T09:12:18.020Z,28.93
2016-06-22T09:13:16.634Z,29.12
2016-06-22T09:14:16.689Z,30
2016-06-22T09:15:16.567Z,30.3
2016-06-22T09:16:16.741Z,29.84
2016-06-22T09:17:16.599Z,29.2
2016-06-22T09:18:17.534Z,28.15
2016-06-22T09:19:16.628Z,27.95
2016-06-22T09:20:17.686Z,27.02
2016-06-22T09:21:17.705Z,26.53
2016-06-22T09:22:16.952Z,26.44
2016-06-22T09:23:16.959Z,26.06
2016-06-22T09:24:17.078Z,25.44
2016-06-22T09:25:16.593Z,24.88
2016-06-22T09:26:16.559Z,24.63
2016-06-22T09:27:32.165Z,24.29
2016-06-22T09:28:16.709Z,24.05
2016-06-22T09:29:16.680Z,23.76
2016-06-22T09:30:16.919Z,23.59
2016-06-22T09:31:17.827Z,23.51
2016-06-22T09:32:17.685Z,23.27
2016-06-22T09:33:16.598Z,23.18
2016-06-22T09:34:20.579Z,23.13
2016-06-22T09:35:16.765Z,23.2
2016-06-22T09:36:20.843Z,23.27
2016-06-22T09:37:16.921Z,23.65
2016-06-22T09:38:33.019Z,23.63
2016-06-22T09:39:16.730Z,23.56
2016-06-22T09:40:18.922Z,24.3
2016-06-22T09:41:17.041Z,25.46
2016-06-22T09:42:17.230Z,26.1
2016-06-22T09:43:17.227Z,26.85
2016-06-22T09:44:17.147Z,27.15
2016-06-22T09:45:17.326Z,27.98
2016-06-22T09:46:16.904Z,28.45
2016-06-22T09:47:16.915Z,28.84
2016-06-22T09:48:16.922Z,29.17
2016-06-22T09:49:17.266Z,28.57
2016-06-22T09:50:17.306Z,28.67
2016-06-22T09:51:16.650Z,28.7
2016-06-22T09:52:17.824Z,28.78
2016-06-22T09:53:18.322Z,28.17
2016-06-22T09:54:17.194Z,28.01
2016-06-22T09:55:21.730Z,28.94
2016-06-22T09:56:16.993Z,29.39
2016-06-22T09:57:17.175Z,28.81
2016-06-22T09:58:17.350Z,29.2
2016-06-22T09:59:20.987Z,29.78
2016-06-22T10:00:18.746Z,29.98
2016-06-22T10:01:19.492Z,30.13
2016-06-22T10:02:16.849Z,30.28
2016-06-22T10:03:20.614Z,30.37
2016-06-22T10:05:03.982Z,30.62
2016-06-22T10:05:50.623Z,30.81
2016-06-22T10:06:21.073Z,30.75
2016-06-22T10:07:20.843Z,30.43
2016-06-22T10:08:21.378Z,29.44
2016-06-22T10:09:21.422Z,29.41
2016-06-22T10:10:24.999Z,29.02
2016-06-22T10:11:39.734Z,28.79
2016-06-22T10:12:21.067Z,28.49
2016-06-22T10:13:27.398Z,28.05
2016-06-22T10:14:27.271Z,27.26
2016-06-22T10:15:36.445Z,26.84
2016-06-22T10:16:24.380Z,26.9
2016-06-22T10:18:19.326Z,28.64
2016-06-22T10:19:16.627Z,29.36
2016-06-22T10:20:15.842Z,30.06
2016-06-22T10:21:16.473Z,30.78
2016-06-22T10:22:15.938Z,31.28
2016-06-22T10:23:34.282Z,31.36
2016-06-22T10:24:16.732Z,30.96
2016-06-22T10:25:15.784Z,30.91
2016-06-22T10:38:16.035Z,27.39
2016-06-22T10:38:31.296Z,27.4
2016-06-22T10:39:31.985Z,27.03
2016-06-22T10:40:32.178Z,26.84
2016-06-22T10:41:32.165Z,26.7
2016-06-22T10:42:49.677Z,26.06
2016-06-22T10:43:48.645Z,26.43
2016-06-22T10:45:00.366Z,26.44
2016-06-22T10:45:55.120Z,26.92
2016-06-22T10:46:49.823Z,27.64
2016-06-22T10:47:53.138Z,27.86
2016-06-22T10:48:54.762Z,27.63
2016-06-22T10:50:05.307Z,28.04
2016-06-22T10:50:58.088Z,27.87
2016-06-22T10:51:54.042Z,28.78
2016-06-22T10:52:54.372Z,28.85
2016-06-22T10:53:53.037Z,29.76
2016-06-22T10:54:55.262Z,29.73
2016-06-22T10:55:52.703Z,29.5
2016-06-22T10:56:53.829Z,29.76
2016-06-22T10:57:52.899Z,30.15
2016-06-22T10:58:53.181Z,30.03
2016-06-22T11:06:12.867Z,27.07
2016-06-22T11:08:56.552Z,28.15
2016-06-22T11:09:22.227Z,28.42
2016-06-22T11:17:53.822Z,30
2016-06-22T11:18:48.409Z,30.12
2016-06-22T11:19:48.537Z,29.84
2016-06-22T11:20:48.407Z,29.36
2016-06-22T11:21:48.417Z,28.82
2016-06-22T11:24:24.506Z,29.08
2016-06-22T11:24:48.361Z,29.08
2016-06-22T11:25:40.190Z,28.7
2016-06-22T11:26:40.495Z,28.01
2016-06-22T11:27:40.184Z,27.73
2016-06-22T11:28:40.246Z,27.82
2016-06-22T11:29:40.482Z,27.7
2016-06-22T11:30:40.327Z,27.85
2016-06-22T11:31:40.142Z,27.49
2016-06-22T11:32:40.727Z,27.14
2016-06-22T11:33:40.491Z,27.08
2016-06-22T11:34:40.114Z,27.18
2016-06-22T11:35:40.362Z,27.4
2016-06-22T11:36:40.250Z,28.39
2016-06-22T11:37:40.132Z,29.22
2016-06-22T11:38:40.131Z,29.1
2016-06-22T11:39:40.158Z,29.44
2016-06-22T11:40:42.763Z,29.75
2016-06-22T11:41:40.307Z,30.24
2016-06-22T11:42:40.197Z,30.91
2016-06-22T11:43:40.103Z,31.51
2016-06-22T11:44:40.125Z,32.22
2016-06-22T11:45:40.110Z,32.34
2016-06-22T11:46:41.006Z,32.38
2016-06-22T11:47:40.153Z,32.53
2016-06-22T11:48:40.670Z,31.65
2016-06-22T11:49:44.993Z,30.75
2016-06-22T11:51:00.374Z,29.94
2016-06-22T11:51:40.147Z,29.08
2016-06-22T11:52:40.534Z,28.02
2016-06-22T11:53:40.197Z,27.75
2016-06-22T11:54:40.795Z,27.3
2016-06-22T11:55:40.931Z,26.84
2016-06-22T11:56:40.173Z,26.73
2016-06-22T11:57:40.114Z,26.59
2016-06-22T11:58:40.140Z,26.55
2016-06-22T11:59:40.114Z,26.53
2016-06-22T12:00:40.267Z,26.95
2016-06-22T12:01:40.094Z,28.23
2016-06-22T12:02:40.135Z,28.76
2016-06-22T12:03:40.291Z,29.72
2016-06-22T12:04:40.145Z,30.3
2016-06-22T12:05:40.505Z,30.91
2016-06-22T12:06:40.481Z,30.83
2016-06-22T12:07:40.124Z,29.79
2016-06-22T12:08:40.120Z,29.22
2016-06-22T12:09:40.121Z,28.51
2016-06-22T12:10:40.177Z,28.02
2016-06-22T12:11:40.108Z,27.59
2016-06-22T12:12:40.206Z,28.23
2016-06-22T12:13:40.135Z,28.89
2016-06-22T12:14:40.170Z,28.79
2016-06-22T12:15:40.356Z,29.13
2016-06-22T12:16:40.130Z,29.47
2016-06-22T12:17:40.232Z,29.72
2016-06-22T12:18:40.156Z,29.71
2016-06-22T12:19:40.133Z,29.53
2016-06-22T12:20:40.256Z,29.26
2016-06-22T12:21:40.145Z,28.82
2016-06-22T12:22:40.691Z,28.01
2016-06-22T12:31:57.269Z,26.75
2016-06-22T12:32:57.041Z,26.83
2016-06-22T12:33:57.038Z,27.11
2016-06-22T12:34:57.063Z,27.86
2016-06-22T12:35:57.081Z,28.51
2016-06-22T12:36:58.405Z,28.29
2016-06-22T12:37:57.038Z,28.12
2016-06-22T12:38:58.120Z,27.77
2016-06-22T12:39:57.077Z,27.27
2016-06-22T12:40:57.051Z,27.65
2016-06-22T12:41:57.058Z,27.75
2016-06-22T12:42:57.203Z,28.25
2016-06-22T12:43:57.201Z,29.01
2016-06-22T12:44:57.077Z,29.82
2016-06-22T12:45:57.447Z,30.19
2016-06-22T12:46:58.268Z,30.51
2016-06-22T12:47:57.074Z,30.78
2016-06-22T12:48:57.167Z,30.77
2016-06-22T12:49:57.081Z,30.4
2016-06-22T12:50:57.056Z,30.16
2016-06-22T12:51:57.054Z,29.86
2016-06-22T12:52:57.093Z,29.65
2016-06-22T12:53:57.065Z,28.79
2016-06-22T12:54:57.146Z,28.33
2016-06-22T12:55:57.074Z,28.19
2016-06-22T12:56:57.049Z,27.87
2016-06-22T12:57:58.031Z,27.17
2016-06-22T12:59:01.673Z,26.85
2016-06-22T13:00:19.269Z,26.83
2016-06-22T13:00:57.115Z,26.85
2016-06-22T13:01:57.501Z,26.71
2016-06-22T13:02:57.179Z,26.78
2016-06-22T13:03:57.179Z,26.83
2016-06-22T13:04:57.130Z,26.93
2016-06-22T13:05:57.104Z,27.02
2016-06-22T13:06:57.083Z,27.12
2016-06-22T13:07:57.164Z,27.25
2016-06-22T13:08:57.075Z,26.84
2016-06-22T13:09:57.141Z,26.81
2016-06-22T13:10:57.122Z,27
2016-06-22T13:11:57.100Z,27.39
2016-06-22T13:12:57.088Z,27.87
2016-06-22T13:13:57.112Z,28.33
2016-06-22T13:14:59.065Z,28.84
2016-06-22T13:15:57.640Z,28.47
2016-06-22T13:16:57.274Z,28.02
2016-06-22T13:17:57.226Z,27.83
2016-06-22T13:18:57.694Z,27.55
2016-06-22T13:20:00.191Z,26.99
2016-06-22T13:20:57.179Z,26.85
2016-06-22T13:22:07.755Z,26.71
2016-06-22T13:23:02.793Z,26.65
2016-06-22T13:23:57.377Z,26.59
2016-06-22T13:24:57.237Z,26.43
2016-06-22T13:25:57.448Z,26.23
2016-06-22T13:26:57.215Z,26.25
2016-06-22T13:28:02.977Z,26.16
2016-06-22T13:38:31.234Z,26.89
2016-06-22T13:39:43.692Z,26.95
2016-06-22T13:41:28.207Z,26.75
2016-06-22T14:00:13.501Z,26.33
2016-06-22T14:10:10.650Z,26.92
2016-06-22T14:12:13.341Z,27.05
2016-06-22T14:22:01.361Z,26.56
2016-06-22T14:23:57.806Z,26.68
2016-06-22T14:27:06.710Z,26.48
2016-06-22T14:28:12.210Z,26.43
2016-06-22T14:28:28.711Z,26.47
2016-06-22T14:29:38.185Z,26.59
2016-06-22T14:36:33.088Z,26.74
2016-06-22T14:37:34.146Z,26.77
2016-06-22T14:38:34.839Z,26.81
2016-06-22T14:39:33.252Z,26.74
2016-06-22T14:42:16.148Z,26.77
2016-06-22T14:45:20.399Z,26.59
2016-06-22T14:46:19.730Z,26.63
2016-06-22T14:47:30.641Z,26.74
2016-06-22T14:48:22.353Z,26.8
2016-06-22T14:49:39.199Z,26.77
2016-06-22T14:50:30.854Z,26.63
2016-06-22T14:51:29.199Z,26.7
2016-06-22T14:52:28.784Z,26.73
2016-06-22T14:53:29.123Z,26.52
2016-06-22T14:55:12.084Z,26.38
2016-06-22T14:55:32.581Z,26.41
2016-06-22T14:56:29.552Z,26.19
2016-06-22T14:57:28.648Z,26.13
2016-06-22T14:58:31.535Z,25.93
2016-06-22T14:59:28.901Z,25.77
2016-06-22T15:13:43.897Z,26.02
2016-06-22T15:15:56.380Z,26.26
2016-06-22T15:16:19.672Z,26.26
2016-06-22T15:17:14.169Z,26.31